Terminal Aerodrome Forecast
Issued by NWS

Current Version | Previous Version | Graphics & Text | Print | Product List | Glossary On
Versions: 1 2 3 4 5 6 7 8 9 10 11 12 13 14 15 16 17 18 19 20 21 22
000
FTUS41 KPBZ 271000 AAB
TAFHLG
TAF AMD
KHLG 271012Z 2710/2806 19005KT 5SM BR SCT006 OVC015
      TEMPO 2710/2712 BKN006 OVC015
     FM271600 23008KT 6SM -SHRA VCTS OVC035CB
     FM272200 23005KT P6SM VCSH BKN035=

USA.gov is the U.S. government's official web portal to all federal, state and local government web resources and services.